createdAt,value
2018-01-25T00:01:14.813Z,4.50
2018-01-25T00:03:42.402Z,4.40
2018-01-25T00:06:10.744Z,4.30
2018-01-25T00:08:38.361Z,4.75
2018-01-25T00:11:05.986Z,5.03
2018-01-25T00:13:34.313Z,5.00
2018-01-25T00:16:01.929Z,6.18
2018-01-25T00:18:30.300Z,5.10
2018-01-25T00:23:49.954Z,5.18
2018-01-25T00:26:17.545Z,5.05
2018-01-25T00:28:45.109Z,5.45
2018-01-25T00:31:12.716Z,5.20
2018-01-25T00:33:40.269Z,5.28
2018-01-25T00:36:07.833Z,5.60
2018-01-25T00:38:35.429Z,5.60
2018-01-25T00:41:02.996Z,5.28
2018-01-25T00:43:30.588Z,5.55
2018-01-25T00:45:58.933Z,5.75
2018-01-25T00:48:26.500Z,6.40
2018-01-25T00:50:54.120Z,6.40
2018-01-25T00:53:21.782Z,5.85
2018-01-25T00:55:50.092Z,6.30
2018-01-25T00:58:17.692Z,6.90
2018-01-25T01:00:46.023Z,5.62
2018-01-25T01:03:13.634Z,7.18
2018-01-25T01:05:41.214Z,5.40
2018-01-25T01:08:08.820Z,6.30
2018-01-25T01:10:36.375Z,6.45
2018-01-25T01:13:03.982Z,5.40
2018-01-25T01:15:32.312Z,5.35
2018-01-25T01:17:59.910Z,4.85
2018-01-25T01:20:28.259Z,5.15
2018-01-25T01:22:55.820Z,4.95
2018-01-25T01:25:23.465Z,5.85
2018-01-25T01:27:51.057Z,6.07
2018-01-25T01:30:18.658Z,6.00
2018-01-25T01:32:46.364Z,5.05
2018-01-25T01:35:13.933Z,4.97
2018-01-25T01:37:41.531Z,4.15
2018-01-25T01:40:09.897Z,5.65
2018-01-25T01:42:37.470Z,5.37
2018-01-25T01:45:05.834Z,5.53
2018-01-25T01:47:34.165Z,5.25
2018-01-25T01:50:01.758Z,4.75
2018-01-25T01:52:29.347Z,5.43
2018-01-25T01:54:57.664Z,4.10
2018-01-25T01:57:25.276Z,4.97
2018-01-25T01:59:53.624Z,4.90
2018-01-25T02:02:21.244Z,5.53
2018-01-25T02:04:48.833Z,5.82
2018-01-25T02:07:16.392Z,4.70
2018-01-25T02:09:44.006Z,6.47
2018-01-25T02:12:11.614Z,5.00
2018-01-25T02:14:39.192Z,5.60
2018-01-25T02:17:06.805Z,5.68
2018-01-25T02:19:35.127Z,5.93
2018-01-25T02:22:02.748Z,5.72
2018-01-25T02:24:30.308Z,5.10
2018-01-25T02:26:57.918Z,5.50
2018-01-25T02:29:26.335Z,5.15
2018-01-25T02:31:53.934Z,4.95
2018-01-25T02:34:21.484Z,5.32
2018-01-25T02:36:49.076Z,5.25
2018-01-25T02:39:16.630Z,5.22
2018-01-25T02:41:44.229Z,5.07
2018-01-25T02:44:12.552Z,5.47
2018-01-25T02:46:40.154Z,5.78
2018-01-25T02:49:07.718Z,5.25
2018-01-25T02:51:35.272Z,4.65
2018-01-25T02:54:02.868Z,5.20
2018-01-25T02:56:31.184Z,4.50
2018-01-25T02:58:58.780Z,5.07
2018-01-25T03:01:26.332Z,5.25
2018-01-25T03:03:53.907Z,5.53
2018-01-25T03:06:23.192Z,5.22
2018-01-25T03:08:50.767Z,5.53
2018-01-25T03:11:19.136Z,5.03
2018-01-25T03:13:46.697Z,5.25
2018-01-25T03:16:14.296Z,5.47
2018-01-25T03:18:41.874Z,5.55
2018-01-25T03:21:09.477Z,5.45
2018-01-25T03:23:37.072Z,4.95
2018-01-25T03:26:05.399Z,6.43
2018-01-25T03:28:33.052Z,5.40
2018-01-25T03:31:00.638Z,5.32
2018-01-25T03:33:28.213Z,6.32
2018-01-25T03:35:56.589Z,5.78
2018-01-25T03:38:24.960Z,5.30
2018-01-25T03:40:52.559Z,5.43
2018-01-25T03:43:20.169Z,6.25
2018-01-25T03:45:48.552Z,4.50
2018-01-25T03:48:16.180Z,4.60
2018-01-25T03:50:43.741Z,4.37
2018-01-25T03:53:11.348Z,6.05
2018-01-25T03:55:38.914Z,4.20
2018-01-25T03:58:07.286Z,5.85
2018-01-25T04:00:34.844Z,6.10
2018-01-25T04:03:02.409Z,5.03
2018-01-25T04:05:30.797Z,4.80
2018-01-25T04:07:58.346Z,5.50
2018-01-25T04:10:25.905Z,5.20
2018-01-25T04:12:53.533Z,4.75
2018-01-25T04:15:21.104Z,5.35
2018-01-25T04:17:48.677Z,3.70
2018-01-25T04:20:17.040Z,4.18
2018-01-25T04:22:44.652Z,3.00
2018-01-25T04:25:12.220Z,3.70
2018-01-25T04:27:40.553Z,3.97
2018-01-25T04:30:08.150Z,3.53
2018-01-25T04:32:36.468Z,3.25
2018-01-25T04:35:04.053Z,3.22
2018-01-25T04:37:31.660Z,3.30
2018-01-25T04:39:59.247Z,3.05
2018-01-25T04:42:26.848Z,3.45
2018-01-25T04:44:54.414Z,3.55
2018-01-25T04:47:22.801Z,2.80
2018-01-25T04:49:50.373Z,3.47
2018-01-25T04:52:18.745Z,3.20
2018-01-25T04:54:47.112Z,3.08
2018-01-25T04:57:14.685Z,3.22
2018-01-25T04:59:43.061Z,2.85
2018-01-25T05:02:10.614Z,2.90
2018-01-25T05:04:38.182Z,3.20
2018-01-25T05:07:06.541Z,3.47
2018-01-25T05:09:34.126Z,3.05
2018-01-25T05:12:02.497Z,3.60
2018-01-25T05:14:30.855Z,3.22
2018-01-25T05:17:14.110Z,3.35
2018-01-25T05:19:42.453Z,3.33
2018-01-25T05:22:10.070Z,2.95
2018-01-25T05:24:37.679Z,2.92
2018-01-25T05:27:05.241Z,3.10
2018-01-25T05:29:32.839Z,4.65
2018-01-25T05:32:00.424Z,2.85
2018-01-25T05:34:28.012Z,3.87
2018-01-25T05:36:55.619Z,3.15
2018-01-25T05:39:23.962Z,3.20
2018-01-25T05:41:51.525Z,3.10
2018-01-25T05:44:19.132Z,3.92
2018-01-25T05:46:47.518Z,3.53
2018-01-25T05:49:15.200Z,3.15
2018-01-25T05:51:43.491Z,3.80
2018-01-25T05:54:11.080Z,2.90
2018-01-25T05:56:38.692Z,3.08
2018-01-25T05:59:06.239Z,3.28
2018-01-25T06:01:33.856Z,3.55
2018-01-25T06:04:01.445Z,3.22
2018-01-25T06:06:29.827Z,3.87
2018-01-25T06:08:58.241Z,3.40
2018-01-25T06:11:25.809Z,3.60
2018-01-25T06:13:53.371Z,2.97
2018-01-25T06:16:20.973Z,4.10
2018-01-25T06:18:48.593Z,3.97
2018-01-25T06:21:16.156Z,3.90
2018-01-25T06:23:44.621Z,3.83
2018-01-25T06:26:12.228Z,3.25
2018-01-25T06:28:39.840Z,3.80
2018-01-25T06:31:07.488Z,3.62
2018-01-25T06:33:35.862Z,4.03
2018-01-25T06:36:03.418Z,3.80
2018-01-25T06:38:31.848Z,3.50
2018-01-25T06:41:00.252Z,3.70
2018-01-25T06:43:27.808Z,3.85
2018-01-25T06:45:55.501Z,4.50
2018-01-25T06:48:23.367Z,3.75
2018-01-25T06:50:51.797Z,4.60
2018-01-25T06:53:19.393Z,5.90
2018-01-25T06:55:47.766Z,4.00
2018-01-25T06:58:15.329Z,4.12
2018-01-25T07:00:42.917Z,4.37
2018-01-25T07:03:11.283Z,3.80
2018-01-25T07:05:38.897Z,4.18
2018-01-25T07:08:06.496Z,3.75
2018-01-25T07:10:34.076Z,3.85
2018-01-25T07:13:02.432Z,4.25
2018-01-25T07:15:30.013Z,4.30
2018-01-25T07:17:58.370Z,4.60
2018-01-25T07:20:25.977Z,4.10
2018-01-25T07:22:53.603Z,4.87
2018-01-25T07:25:21.964Z,3.60
2018-01-25T07:27:49.740Z,4.03
2018-01-25T07:30:18.238Z,3.33
2018-01-25T07:32:45.849Z,3.70
2018-01-25T07:35:13.782Z,4.15
2018-01-25T07:37:41.382Z,3.40
2018-01-25T07:40:09.031Z,3.47
2018-01-25T07:42:36.601Z,4.65
2018-01-25T07:45:04.862Z,3.90
2018-01-25T07:47:38.642Z,4.57
2018-01-25T07:50:07.557Z,5.87
2018-01-25T07:52:35.278Z,4.12
2018-01-25T07:55:03.881Z,5.50
2018-01-25T07:57:38.553Z,4.75
2018-01-25T08:00:11.574Z,4.32
2018-01-25T08:02:41.006Z,4.25
2018-01-25T08:05:09.348Z,3.62
2018-01-25T08:07:36.905Z,4.07
2018-01-25T08:10:04.523Z,4.97
2018-01-25T08:12:32.756Z,4.12
2018-01-25T08:15:00.406Z,3.58
2018-01-25T08:17:31.292Z,4.32
2018-01-25T08:19:59.225Z,4.15
2018-01-25T08:22:33.949Z,4.53
2018-01-25T08:25:31.348Z,5.00
2018-01-25T08:28:10.485Z,4.65
2018-01-25T08:30:46.665Z,4.18
2018-01-25T08:36:51.230Z,5.00
2018-01-25T08:40:01.485Z,5.32
2018-01-25T08:45:58.073Z,4.15
2018-01-25T08:48:37.923Z,4.25
2018-01-25T08:51:18.023Z,3.65
2018-01-25T08:53:56.204Z,4.93
2018-01-25T08:56:24.238Z,4.35
2018-01-25T08:58:51.861Z,4.82
2018-01-25T09:01:20.770Z,4.53
2018-01-25T09:03:53.588Z,4.00
2018-01-25T09:06:21.204Z,4.03
2018-01-25T09:08:49.163Z,3.78
2018-01-25T09:14:19.699Z,4.78
2018-01-25T09:16:47.836Z,4.07
2018-01-25T09:22:01.903Z,4.70
2018-01-25T09:24:29.549Z,3.80
2018-01-25T09:26:57.133Z,4.00
2018-01-25T09:29:24.877Z,3.80
2018-01-25T09:31:54.524Z,4.07
2018-01-25T09:34:22.761Z,4.78
2018-01-25T09:36:50.372Z,5.60
2018-01-25T09:39:18.773Z,4.57
2018-01-25T09:41:48.936Z,4.47
2018-01-25T09:44:18.702Z,3.95
2018-01-25T09:46:48.602Z,3.87
2018-01-25T09:49:16.255Z,3.67
2018-01-25T09:51:43.944Z,4.10
2018-01-25T09:54:12.331Z,3.70
2018-01-25T09:56:41.687Z,4.05
2018-01-25T09:59:10.302Z,3.95
2018-01-25T10:01:38.937Z,4.10
2018-01-25T10:04:07.905Z,3.58
2018-01-25T10:06:35.495Z,5.90
2018-01-25T10:09:03.255Z,5.85
2018-01-25T10:11:31.701Z,5.15
2018-01-25T10:13:59.289Z,4.82
2018-01-25T10:16:26.913Z,4.75
2018-01-25T10:18:54.642Z,5.32
2018-01-25T10:21:22.705Z,4.00
2018-01-25T10:24:00.284Z,4.18
2018-01-25T10:26:29.064Z,4.22
2018-01-25T10:28:56.650Z,4.53
2018-01-25T10:31:24.224Z,5.82
2018-01-25T10:33:52.252Z,4.07
2018-01-25T10:36:19.904Z,3.50
2018-01-25T10:38:47.673Z,4.53
2018-01-25T10:41:15.365Z,3.92
2018-01-25T10:43:43.038Z,4.30
2018-01-25T10:46:11.980Z,4.15
2018-01-25T10:48:41.249Z,4.07
2018-01-25T10:51:11.206Z,4.28
2018-01-25T10:53:39.218Z,3.97
2018-01-25T10:56:08.079Z,4.03
2018-01-25T10:58:36.222Z,3.60
2018-01-25T11:01:09.410Z,3.30
2018-01-25T11:03:37.874Z,3.42
2018-01-25T11:06:05.628Z,3.30
2018-01-25T11:08:33.275Z,4.10
2018-01-25T11:11:00.856Z,4.00
2018-01-25T11:13:28.605Z,4.10
2018-01-25T11:15:56.193Z,3.70
2018-01-25T11:18:23.827Z,3.95
2018-01-25T11:20:51.420Z,4.10
2018-01-25T11:23:19.797Z,4.05
2018-01-25T11:25:47.377Z,4.25
2018-01-25T11:28:15.005Z,4.05
2018-01-25T11:30:42.621Z,3.90
2018-01-25T11:33:10.223Z,4.25
2018-01-25T11:35:37.823Z,4.55
2018-01-25T11:38:06.218Z,4.07
2018-01-25T11:40:33.815Z,4.05
2018-01-25T11:43:01.774Z,3.75
2018-01-25T11:45:29.386Z,4.20
2018-01-25T11:47:57.050Z,4.15
2018-01-25T11:50:25.490Z,4.10
2018-01-25T11:52:53.924Z,4.22
2018-01-25T11:55:21.500Z,4.53
2018-01-25T11:57:49.072Z,4.80
2018-01-25T12:00:16.681Z,5.28
2018-01-25T12:02:44.409Z,5.03
2018-01-25T12:05:12.052Z,4.05
2018-01-25T12:07:42.548Z,4.72
2018-01-25T12:10:11.693Z,3.75
2018-01-25T12:12:40.127Z,4.20
2018-01-25T12:15:08.473Z,4.10
2018-01-25T12:17:36.073Z,3.90
2018-01-25T12:20:05.357Z,4.28
2018-01-25T12:22:33.027Z,4.53
2018-01-25T12:25:01.428Z,3.80
2018-01-25T12:27:34.835Z,5.07
2018-01-25T12:30:02.913Z,4.30
2018-01-25T12:32:30.486Z,4.57
2018-01-25T12:34:58.914Z,3.85
2018-01-25T12:37:33.463Z,3.60
2018-01-25T12:40:02.535Z,3.72
2018-01-25T12:42:30.961Z,4.37
2018-01-25T12:44:58.688Z,3.67
2018-01-25T12:47:26.390Z,3.78
2018-01-25T12:49:58.417Z,4.72
2018-01-25T12:52:26.070Z,4.10
2018-01-25T12:54:54.499Z,4.45
2018-01-25T12:57:22.148Z,3.85
2018-01-25T12:59:49.835Z,5.85
2018-01-25T13:02:17.539Z,4.90
2018-01-25T13:04:46.336Z,3.40
2018-01-25T13:07:13.983Z,4.18
2018-01-25T13:09:41.604Z,4.35
2018-01-25T13:12:09.180Z,4.78
2018-01-25T13:14:36.793Z,4.35
2018-01-25T13:17:04.941Z,3.15
2018-01-25T13:19:32.637Z,3.97
2018-01-25T13:22:00.254Z,3.83
2018-01-25T13:24:27.903Z,4.10
2018-01-25T13:26:55.531Z,3.40
2018-01-25T13:29:23.179Z,4.15
2018-01-25T13:34:37.769Z,4.85
2018-01-25T13:37:05.448Z,4.00
2018-01-25T13:39:33.044Z,3.78
2018-01-25T13:42:00.706Z,4.03
2018-01-25T13:44:28.346Z,4.68
2018-01-25T13:46:55.912Z,4.35
2018-01-25T13:49:25.919Z,4.75
2018-01-25T13:51:53.498Z,3.87
2018-01-25T13:54:21.100Z,4.20
2018-01-25T13:56:48.800Z,4.43
2018-01-25T13:59:16.564Z,4.18
2018-01-25T14:01:44.211Z,4.90
2018-01-25T14:04:11.796Z,4.40
2018-01-25T14:06:39.453Z,4.78
2018-01-25T14:09:07.856Z,4.05
2018-01-25T14:11:35.456Z,4.28
2018-01-25T14:14:03.042Z,4.90
2018-01-25T14:16:30.907Z,3.50
2018-01-25T14:18:58.486Z,3.65
2018-01-25T14:21:26.060Z,4.30
2018-01-25T14:23:53.688Z,4.45
2018-01-25T14:26:21.331Z,4.45
2018-01-25T14:28:49.750Z,4.50
2018-01-25T14:31:20.133Z,4.82
2018-01-25T14:33:47.941Z,3.72
2018-01-25T14:36:15.543Z,4.90
2018-01-25T14:38:44.148Z,4.55
2018-01-25T14:41:12.527Z,3.37
2018-01-25T14:43:40.859Z,4.95
2018-01-25T14:46:08.464Z,4.45
2018-01-25T14:48:36.070Z,4.55
2018-01-25T14:51:03.705Z,4.72
2018-01-25T14:53:31.401Z,4.30
2018-01-25T14:55:59.264Z,4.65
2018-01-25T14:58:27.030Z,4.80
2018-01-25T15:00:57.620Z,5.72
2018-01-25T15:03:25.422Z,4.70
2018-01-25T15:05:53.037Z,4.60
2018-01-25T15:08:20.677Z,4.50
2018-01-25T15:10:51.501Z,5.18
2018-01-25T15:13:19.144Z,4.28
2018-01-25T15:15:46.804Z,5.18
2018-01-25T15:18:14.459Z,5.20
2018-01-25T15:20:42.195Z,4.53
2018-01-25T15:23:10.737Z,4.80
2018-01-25T15:25:44.046Z,3.92
2018-01-25T15:28:11.645Z,4.35
2018-01-25T15:30:39.242Z,4.68
2018-01-25T15:33:06.917Z,4.80
2018-01-25T15:35:37.330Z,4.25
2018-01-25T15:38:05.544Z,4.47
2018-01-25T15:40:33.943Z,4.62
2018-01-25T15:43:02.371Z,4.53
2018-01-25T15:45:30.219Z,4.85
2018-01-25T15:47:58.557Z,4.53
2018-01-25T15:50:30.642Z,5.57
2018-01-25T15:53:04.692Z,5.60
2018-01-25T15:55:43.339Z,5.45
2018-01-25T15:58:12.033Z,5.20
2018-01-25T16:00:40.420Z,5.80
2018-01-25T16:03:08.762Z,5.82
2018-01-25T16:05:36.384Z,5.00
2018-01-25T16:08:10.670Z,5.95
2018-01-25T16:10:39.078Z,5.37
2018-01-25T16:13:06.695Z,5.40
2018-01-25T16:15:34.301Z,4.57
2018-01-25T16:18:01.910Z,4.20
2018-01-25T16:20:29.568Z,6.05
2018-01-25T16:22:57.146Z,5.15
2018-01-25T16:25:24.794Z,4.95
2018-01-25T16:27:52.357Z,4.55
2018-01-25T16:30:21.943Z,4.30
2018-01-25T16:32:49.595Z,5.70
2018-01-25T16:35:17.197Z,4.65
2018-01-25T16:37:44.766Z,5.00
2018-01-25T16:40:12.363Z,4.57
2018-01-25T16:42:40.009Z,4.72
2018-01-25T16:45:07.599Z,5.53
2018-01-25T16:47:35.224Z,5.12
2018-01-25T16:50:02.838Z,4.90
2018-01-25T16:52:30.435Z,5.40
2018-01-25T16:54:58.013Z,6.35
2018-01-25T16:57:25.606Z,9.85
2018-01-25T16:59:53.224Z,9.80
2018-01-25T17:02:21.587Z,8.95
2018-01-25T17:04:49.155Z,8.60
2018-01-25T17:07:27.182Z,7.70
2018-01-25T17:09:54.788Z,6.30
2018-01-25T17:12:22.405Z,6.10
2018-01-25T17:14:51.761Z,5.70
2018-01-25T17:17:19.445Z,6.40
2018-01-25T17:19:47.008Z,6.93
2018-01-25T17:22:14.617Z,6.35
2018-01-25T17:24:42.180Z,5.78
2018-01-25T17:27:09.801Z,6.55
2018-01-25T17:29:37.433Z,7.05
2018-01-25T17:32:05.008Z,5.78
2018-01-25T17:34:32.618Z,4.97
2018-01-25T17:37:00.197Z,5.75
2018-01-25T17:39:27.831Z,6.30
2018-01-25T17:41:56.169Z,4.65
2018-01-25T17:44:23.788Z,5.15
2018-01-25T17:46:51.368Z,6.03
2018-01-25T17:49:18.972Z,4.45
2018-01-25T17:51:47.942Z,5.80
2018-01-25T17:54:15.508Z,5.87
2018-01-25T17:56:43.108Z,5.43
2018-01-25T17:59:10.811Z,5.57
2018-01-25T18:01:38.446Z,5.75
2018-01-25T18:04:06.064Z,5.70
2018-01-25T18:06:34.088Z,5.53
2018-01-25T18:09:01.845Z,5.82
2018-01-25T18:11:29.400Z,5.97
2018-01-25T18:13:56.985Z,6.12
2018-01-25T18:16:24.550Z,5.93
2018-01-25T18:18:52.928Z,6.03
2018-01-25T18:21:20.526Z,6.10
2018-01-25T18:23:48.097Z,6.78
2018-01-25T18:26:15.717Z,7.05
2018-01-25T18:28:43.264Z,6.45
2018-01-25T18:31:10.816Z,6.43
2018-01-25T18:33:38.406Z,6.93
2018-01-25T18:36:05.976Z,7.37
2018-01-25T18:38:33.526Z,6.68
2018-01-25T18:41:01.117Z,7.53
2018-01-25T18:43:28.931Z,7.62
2018-01-25T18:45:56.557Z,7.97
2018-01-25T18:48:25.529Z,6.22
2018-01-25T18:50:53.671Z,6.68
2018-01-25T18:53:21.581Z,6.60
2018-01-25T18:55:50.934Z,6.03
2018-01-25T18:58:22.555Z,5.60
2018-01-25T19:00:52.800Z,5.53
2018-01-25T19:03:20.924Z,5.07
2018-01-25T19:05:49.006Z,6.47
2018-01-25T19:08:17.453Z,6.05
2018-01-25T19:10:45.066Z,5.62
2018-01-25T19:13:14.805Z,5.90
2018-01-25T19:15:43.679Z,7.22
2018-01-25T19:18:11.284Z,5.60
2018-01-25T19:20:38.851Z,5.85
2018-01-25T19:23:06.454Z,6.78
2018-01-25T19:25:34.079Z,5.78
2018-01-25T19:28:01.697Z,6.57
2018-01-25T19:30:29.269Z,5.75
2018-01-25T19:32:56.861Z,5.70
2018-01-25T19:35:24.485Z,6.00
2018-01-25T19:37:52.076Z,6.50
2018-01-25T19:40:19.636Z,6.07
2018-01-25T19:42:47.249Z,6.57
2018-01-25T19:45:14.848Z,7.45
2018-01-25T19:47:42.449Z,7.03
2018-01-25T19:50:10.032Z,6.65
2018-01-25T19:52:37.652Z,6.70
2018-01-25T19:55:05.297Z,6.53
2018-01-25T19:57:32.894Z,5.95
2018-01-25T20:00:01.248Z,7.55
2018-01-25T20:02:28.794Z,6.90
2018-01-25T20:04:56.413Z,6.80
2018-01-25T20:07:24.750Z,6.80
2018-01-25T20:09:52.328Z,7.15
2018-01-25T20:12:19.943Z,7.22
2018-01-25T20:14:47.534Z,7.03
2018-01-25T20:17:15.108Z,7.15
2018-01-25T20:19:42.714Z,6.87
2018-01-25T20:22:10.286Z,6.87
2018-01-25T20:24:37.898Z,6.85
2018-01-25T20:27:05.518Z,7.57
2018-01-25T20:29:33.149Z,7.47
2018-01-25T20:32:00.769Z,6.53
2018-01-25T20:34:28.340Z,7.12
2018-01-25T20:36:55.887Z,8.88
2018-01-25T20:39:23.481Z,7.22
2018-01-25T20:41:51.824Z,7.47
2018-01-25T20:44:19.442Z,7.28
2018-01-25T20:46:47.029Z,6.20
2018-01-25T20:49:14.597Z,6.40
2018-01-25T20:51:42.211Z,7.65
2018-01-25T20:54:09.805Z,7.10
2018-01-25T20:56:37.388Z,7.20
2018-01-25T20:59:05.007Z,6.87
2018-01-25T21:01:32.657Z,6.57
2018-01-25T21:04:00.990Z,7.85
2018-01-25T21:06:28.633Z,6.95
2018-01-25T21:08:56.183Z,8.65
2018-01-25T21:11:23.881Z,7.45
2018-01-25T21:13:51.445Z,7.53
2018-01-25T21:16:19.029Z,8.82
2018-01-25T21:18:47.397Z,11.77
2018-01-25T21:21:14.966Z,7.03
2018-01-25T21:23:43.333Z,7.85
2018-01-25T21:26:10.927Z,8.45
2018-01-25T21:28:38.540Z,7.70
2018-01-25T21:31:06.084Z,8.35
2018-01-25T21:33:33.635Z,7.15
2018-01-25T21:36:01.250Z,7.12
2018-01-25T21:38:29.602Z,7.68
2018-01-25T21:40:57.219Z,8.23
2018-01-25T21:43:24.812Z,7.22
2018-01-25T21:45:52.430Z,8.65
2018-01-25T21:48:19.990Z,8.57
2018-01-25T21:50:47.594Z,8.57
2018-01-25T21:53:15.270Z,7.05
2018-01-25T21:55:42.824Z,7.70
2018-01-25T21:58:10.436Z,8.55
2018-01-25T22:00:38.026Z,7.65
2018-01-25T22:03:05.653Z,8.80
2018-01-25T22:05:34.005Z,8.10
2018-01-25T22:08:01.585Z,7.43
2018-01-25T22:10:29.251Z,8.98
2018-01-25T22:12:57.596Z,9.88
2018-01-25T22:15:25.194Z,8.05
2018-01-25T22:17:52.814Z,7.50
2018-01-25T22:20:20.393Z,6.95
2018-01-25T22:22:48.002Z,7.05
2018-01-25T22:25:15.615Z,8.30
2018-01-25T22:27:43.233Z,8.25
2018-01-25T22:30:10.808Z,7.90
2018-01-25T22:32:38.400Z,7.50
2018-01-25T22:35:05.995Z,7.68
2018-01-25T22:37:33.561Z,7.85
2018-01-25T22:40:01.173Z,8.60
2018-01-25T22:42:28.766Z,8.00
2018-01-25T22:44:57.147Z,8.07
2018-01-25T22:47:25.479Z,7.53
2018-01-25T22:49:53.073Z,8.63
2018-01-25T22:52:21.452Z,7.62
2018-01-25T22:54:49.811Z,7.15
2018-01-25T22:57:17.420Z,8.07
2018-01-25T22:59:45.013Z,7.45
2018-01-25T23:02:12.664Z,7.10
2018-01-25T23:04:41.007Z,7.72
2018-01-25T23:07:09.372Z,7.70
2018-01-25T23:09:37.700Z,9.30
2018-01-25T23:12:05.348Z,8.07
2018-01-25T23:14:32.926Z,8.15
2018-01-25T23:17:00.564Z,7.65
2018-01-25T23:19:28.126Z,7.28
2018-01-25T23:21:55.717Z,7.03
2018-01-25T23:24:23.309Z,6.90
2018-01-25T23:26:50.875Z,7.45
2018-01-25T23:29:18.471Z,6.82
2018-01-25T23:31:46.077Z,6.22
2018-01-25T23:34:13.654Z,6.78
2018-01-25T23:36:41.240Z,7.32
2018-01-25T23:39:08.852Z,6.47
2018-01-25T23:41:36.463Z,7.90
2018-01-25T23:44:04.797Z,7.90
2018-01-25T23:46:32.409Z,7.90
2018-01-25T23:48:59.978Z,6.85
2018-01-25T23:51:27.581Z,6.97
2018-01-25T23:53:55.137Z,7.60
2018-01-25T23:56:22.729Z,7.50
2018-01-25T23:58:50.308Z,6.97
